Flight Track Log - Related Links

Times and Time Zones

All times are in EDT time to prevent confusion due to time zone crossing. See the N159PG flight status page for this flight to view local times or setup timezone preferences in your user account.

Time Position Orientation Groundspeed Altitude Reporting Facility
EDT Latitude Longitude Course Direction KTS MPH feet Rate Location/Type
Mon 10:37:14 AM 40.7000 -73.4000 217° Southwest 101 116 900  Level New York TRACON
Mon 10:38:13 AM 40.6833 -73.4167 217° Southwest 104 120 1,400 526 Climbing New York TRACON
Mon 10:39:08 AM 40.6500 -73.4500 217° Southwest 111 128 1,900 574 Climbing New York TRACON
Mon 10:40:08 AM 40.6333 -73.4167 123° Southeast 124 143 2,500 579 Climbing New York TRACON
Mon 10:41:02 AM 40.6333 -73.3833 90° East 123 142 3,000 211 Climbing New York TRACON
Mon 10:42:02 AM 40.6500 -73.3333 66° East 138 159 2,900 -50 Descending New York TRACON
Mon 10:43:02 AM 40.6667 -73.3000 57° Northeast 129 148 2,900 50 Level New York TRACON
Mon 10:44:02 AM 40.6833 -73.2500 66° East 126 145 3,000 50 Climbing New York TRACON
Mon 10:45:02 AM 40.7000 -73.2167 57° Northeast 126 145 3,000  Level New York TRACON
Mon 10:46:02 AM 40.7000 -73.1667 90° East 126 145 3,000  Level New York TRACON
Mon 10:47:02 AM 40.7167 -73.1333 57° Northeast 127 146 3,000  Level New York TRACON
Mon 10:48:02 AM 40.7500 -73.1000 37° Northeast 128 147 3,000  Level New York TRACON
Mon 10:49:02 AM 40.7833 -73.0667 37° Northeast 128 147 3,000  Level New York TRACON
Mon 10:50:02 AM 40.8000 -73.0333 57° Northeast 127 146 3,000 -250 Level New York TRACON
Mon 10:51:02 AM 40.8333 -73.0000 37° Northeast 141 162 2,500 -474 Descending New York TRACON
Mon 10:51:56 AM 40.8500 -72.9667 57° Northeast 143 165 2,100 -250 Descending New York TRACON
Mon 10:53:02 AM 40.8667 -72.9167 66° East 126 145 2,000 -48 Descending New York TRACON
Mon 10:54:02 AM 40.9000 -72.9333 339° North 116 133 2,000  Level New York TRACON
Mon 10:55:02 AM 40.9000 -72.9667 270° West 103 119 2,000  Level New York TRACON
Mon 10:55:56 AM 40.8833 -72.9833 217° Southwest 100 115 2,000 -150 Level New York TRACON
Mon 10:57:02 AM 40.8667 -73.0167 237° Southwest 107 123 1,700 -333 Descending New York TRACON
Mon 10:58:02 AM 40.8500 -73.0333 217° Southwest 106 122 1,300 -500 Descending New York TRACON
Mon 10:59:02 AM 40.8167 -73.0667 217° Southwest 106 122 700 -300 Descending New York TRACON
Mon 11:00:02 AM 40.8000 -73.1000 237° Southwest 105 121 700 316 Level New York TRACON
Mon 11:00:56 AM 40.7833 -73.1167 217° Southwest 100 115 1,300 632 Climbing New York TRACON
Mon 11:01:56 AM 40.7667 -73.1333 217° Southwest 96 110 1,900 350 Climbing New York TRACON
Mon 11:02:56 AM 40.7500 -73.1167 143° Southeast 130 150 2,000 50 Climbing New York TRACON
Mon 11:03:56 AM 40.7667 -73.0833 57° Northeast 121 139 2,000  Level New York TRACON
Mon 11:04:56 AM 40.7833 -73.0500 57° Northeast 128 147 2,000  Level New York TRACON
Mon 11:05:56 AM 40.8167 -73.0167 37° Northeast 132 152 2,000  Level New York TRACON
Mon 11:06:56 AM 40.8500 -72.9833 37° Northeast 133 153 2,000  Level New York TRACON
Mon 11:07:50 AM 40.8667 -72.9667 37° Northeast 138 159 2,000  Level New York TRACON
Mon 11:08:50 AM 40.8833 -73.0000 303° West 118 136 2,000 -100 Level New York TRACON
Mon 11:09:50 AM 40.8667 -73.0167 217° Southwest 103 119 1,800 -450 Descending New York TRACON
Mon 11:10:50 AM 40.8500 -73.0500 237° Southwest 103 119 1,100 -550 Descending New York TRACON
Mon 11:11:50 AM 40.8167 -73.0667 201° Southwest 100 115 700 -250 Descending New York TRACON
Mon 11:12:50 AM 40.8000 -73.1000 237° Southwest 107 123 600 250 Descending New York TRACON
Mon 11:13:50 AM 40.7833 -73.1167 217° Southwest 109 125 1,200 550 Climbing New York TRACON
Mon 11:14:50 AM 40.7667 -73.1500 237° Southwest 113 130 1,700 400 Climbing New York TRACON
Mon 11:15:50 AM 40.7667 -73.1833 270° West 131 151 2,000 150 Climbing New York TRACON
Mon 11:16:50 AM 40.7667 -73.2333 270° West 128 147 2,000  Level New York TRACON
Mon 11:17:50 AM 40.7833 -73.2833 294° West 119 137 2,000  Level New York TRACON
Mon 11:18:50 AM 40.7833 -73.3167 270° West 112 129 2,000  Level New York TRACON
Mon 11:19:50 AM 40.7833 -73.3667 270° West 115 132 2,000  Level New York TRACON
Mon 11:20:50 AM 40.7833 -73.4000 270° West 115 132 2,000  Level New York TRACON
Mon 11:21:50 AM 40.7833 -73.4500 270° West 115 132 2,000  Level New York TRACON
Mon 11:22:50 AM 40.7833 -73.4833 270° West 115 132 2,000 -200 Level New York TRACON
Mon 11:23:50 AM 40.7833 -73.5333 270° West 117 135 1,600 -200 Descending New York TRACON
Mon 11:24:50 AM 40.8000 -73.5333 360° North 107 123 1,600  Level New York TRACON
Mon 11:25:50 AM 40.7833 -73.5000 123° Southeast 98 113 1,600 -250 Level New York TRACON
Mon 11:26:50 AM 40.7667 -73.4667 123° Southeast 107 123 1,100 -550 Descending New York TRACON
Mon 11:27:50 AM 40.7500 -73.4500 143° Southeast 102 117 500 -600 Descending New York TRACON

Login

Don't have an account? Register now (free) for customized features, flight alerts, and more!